Fort Myers, FL

12:04 AM EST on February 14, 2016 (GMT -0500)
Page | | Change Station
CLOSE
Current Station
Airport
Location: Fort Myers,
Elevation: 16 ft
Nearby Weather Stations

Elev 16 ft 26.58 °N, 81.86 °W | Updated 11 minutes ago

Clear
Clear
54 °F
Feels Like 54 °F
N
9
Wind Variable Wind from NE

Today
High -- | Low -- °F
--% Chance of Precip.
Yesterday
High -- | Low -- °F
Precip. -- in
Pressure 30.26 in
Visibility 10.0 miles
Clouds Clear
Dew Point 47 °F
Humidity 77%
Rainfall 0.00 in
Snow Depth Not available.
7:04 AM 6:19 PM
Waxing Crescent, 38% visible
METAR KFMY 140453Z AUTO 05008KT 10SM CLR 12/08 A3025 RMK AO2 SLP245 T01220083 402390100
Pressure 30.26 in
Visibility 10.0 miles
Clouds Clear
Dew Point 47 °F
Humidity 77%
Rainfall 0.00 in
Snow Depth Not available.
7:04 AM 6:19 PM
Waxing Crescent, 38% visible
METAR KFMY 140453Z AUTO 05008KT 10SM CLR 12/08 A3025 RMK AO2 SLP245 T01220083 402390100

10-Day Weather Forecast

Almanac

Astronomy

Feb. 14, 2016 Rise Set
Actual Time
Civil Twilight
Nautical Twilight
Astronomical Twilight
Moon
Length of Visible Light
Length of Day
Tomorrow will be .
, % of the Moon is Illuminated

Today's Extremes

State Highs State Lows

Community

WunderPhotos

Upload Photos

1,892,748 photos uploaded!

WunderBlog® & News

Nearby

Air Quality

  Air Quality AQ Index Pollutant
Not available.

Snow Depth

Station Depth Elevation

Earthquake Activity

City Distance Mag. Time & Date
Minimum magnitude displayed is 2.5.

Coastal Water Temperatures

Place Temperature

Stations

Nearby Weather Stations

Station Location Temp. Windchill Dew Point Humidity Wind Precip. Elev Updated Type
                   

Watches & Warnings

There are currently no watches in effect.